Time;durP1;ratioP1;P1;durP2;ratioP2;P2;SDS_P1;SDS_P2;PMS_P1;PMS_P2;Temp;Humidity;BMP_temperature;BMP_pressure;BME280_temperature;BME280_humidity;BME280_pressure;Samples;Min_cycle;Max_cycle;Signal;HPM_P1;HPM_P2
2024/03/23 00:01:47;;;;;;;3.88;3.10;;;8.80;99.90;;;;;;5021746;28;20041;-31
2024/03/23 00:04:15;;;;;;;5.67;3.07;;;8.60;99.90;;;;;;5023312;28;20373;-37
2024/03/23 00:06:41;;;;;;;3.55;3.00;;;8.40;99.90;;;;;;5023457;28;20034;-31
2024/03/23 00:09:07;;;;;;;3.78;2.92;;;8.10;99.90;;;;;;5023790;28;20028;-39
2024/03/23 00:11:37;;;;;;;3.38;2.70;;;8.10;99.90;;;;;;5023779;28;20036;-38
2024/03/23 00:14:07;;;;;;;3.83;2.88;;;7.90;99.90;;;;;;5022382;28;20041;-38
2024/03/23 00:16:34;;;;;;;3.75;3.17;;;8.00;99.90;;;;;;5022273;28;20533;-36
2024/03/23 00:19:01;;;;;;;3.45;2.78;;;8.10;99.90;;;;;;5023123;28;20021;-45
2024/03/23 00:21:27;;;;;;;3.92;3.00;;;8.10;99.90;;;;;;5019531;28;20083;-39
2024/03/23 00:23:54;;;;;;;3.10;2.80;;;8.10;99.90;;;;;;5021172;28;20522;-38
2024/03/23 00:26:20;;;;;;;3.97;2.90;;;8.20;99.90;;;;;;5021629;28;20033;-38
2024/03/23 00:28:47;;;;;;;3.88;3.45;;;8.20;99.90;;;;;;5020427;28;20021;-39
2024/03/23 00:31:14;;;;;;;2.92;2.72;;;8.20;99.90;;;;;;5023126;28;20037;-38
2024/03/23 00:33:40;;;;;;;4.30;2.88;;;8.20;99.90;;;;;;5024638;28;20487;-40
2024/03/23 00:36:07;;;;;;;3.15;2.83;;;8.20;99.90;;;;;;5023815;28;20036;-34
2024/03/23 00:38:33;;;;;;;4.63;2.65;;;8.20;99.90;;;;;;5020236;28;20474;-38
2024/03/23 00:41:00;;;;;;;5.10;3.10;;;8.20;99.90;;;;;;5021617;28;20021;-36
2024/03/23 00:43:27;;;;;;;3.53;2.70;;;8.10;99.90;;;;;;5023297;28;20041;-35
2024/03/23 00:45:53;;;;;;;2.83;2.47;;;8.10;99.90;;;;;;5020304;28;20022;-39
2024/03/23 00:48:20;;;;;;;4.07;2.63;;;8.10;99.90;;;;;;5018813;28;20051;-38
2024/03/23 00:50:46;;;;;;;4.22;2.70;;;8.10;99.90;;;;;;5021585;28;20151;-37
2024/03/23 00:53:12;;;;;;;2.63;2.35;;;8.00;99.90;;;;;;5023782;28;20030;-39
2024/03/23 00:55:38;;;;;;;3.97;3.03;;;8.10;99.90;;;;;;5023029;28;20108;-38
2024/03/23 00:58:03;;;;;;;4.30;2.53;;;8.00;99.90;;;;;;5020924;28;20561;-32
2024/03/23 01:00:29;;;;;;;4.07;2.50;;;8.00;99.90;;;;;;5022369;28;20037;-32
2024/03/23 01:02:55;;;;;;;2.35;2.13;;;7.80;99.90;;;;;;5023523;28;20045;-34
2024/03/23 01:05:20;;;;;;;2.72;2.53;;;7.20;99.90;;;;;;5020670;28;20402;-33
2024/03/23 01:07:46;;;;;;;4.70;2.60;;;7.10;99.90;;;;;;5023575;28;20061;-34
2024/03/23 01:10:12;;;;;;;6.13;3.10;;;7.20;99.90;;;;;;5023931;28;20022;-31
2024/03/23 01:12:37;;;;;;;4.88;2.80;;;7.30;99.90;;;;;;5022089;28;20753;-34
2024/03/23 01:15:03;;;;;;;3.03;2.70;;;7.40;99.90;;;;;;5004879;28;20794;-36
2024/03/23 01:17:28;;;;;;;4.18;3.10;;;7.40;99.90;;;;;;5022283;28;20071;-38
2024/03/23 01:19:54;;;;;;;4.75;2.38;;;7.40;99.90;;;;;;5023300;28;20041;-38
2024/03/23 01:22:20;;;;;;;2.42;2.10;;;7.50;99.90;;;;;;5016284;28;20034;-37
2024/03/23 01:24:45;;;;;;;5.20;2.80;;;7.40;99.90;;;;;;5022579;28;20801;-38
2024/03/23 01:27:11;;;;;;;3.60;2.35;;;7.10;99.90;;;;;;5022337;28;20125;-36
2024/03/23 01:29:36;;;;;;;2.75;2.50;;;6.90;99.90;;;;;;5020978;28;20071;-38
2024/03/23 01:32:02;;;;;;;6.65;2.85;;;6.90;99.90;;;;;;5020913;28;20136;-40
2024/03/23 01:34:28;;;;;;;3.55;2.50;;;6.80;99.90;;;;;;5020722;28;20041;-41
2024/03/23 01:36:53;;;;;;;2.85;2.65;;;6.70;99.90;;;;;;5021948;28;20033;-42
2024/03/23 01:39:19;;;;;;;2.55;2.35;;;6.50;99.90;;;;;;5022650;28;20523;-39
2024/03/23 01:41:44;;;;;;;3.05;2.67;;;6.30;99.90;;;;;;5020099;28;20067;-36
2024/03/23 01:44:10;;;;;;;3.25;2.95;;;6.20;99.90;;;;;;5023663;28;20054;-41
2024/03/23 01:46:37;;;;;;;3.38;2.90;;;6.10;99.90;;;;;;5019363;28;20022;-38
2024/03/23 01:49:04;;;;;;;3.35;2.92;;;6.20;99.90;;;;;;5021812;28;20039;-40
2024/03/23 01:51:30;;;;;;;3.67;2.65;;;6.30;99.90;;;;;;5022983;28;20517;-39
2024/03/23 01:53:57;;;;;;;2.70;2.50;;;6.40;99.90;;;;;;5020600;28;20069;-40
2024/03/23 01:56:23;;;;;;;3.20;2.95;;;6.50;99.90;;;;;;5023973;28;20096;-41
2024/03/23 01:58:48;;;;;;;2.85;2.60;;;6.50;99.90;;;;;;5021663;28;20038;-39
2024/03/23 02:01:14;;;;;;;8.15;2.55;;;6.60;99.90;;;;;;5020425;28;20037;-38
2024/03/23 02:03:39;;;;;;;2.90;2.20;;;6.60;99.90;;;;;;5023672;28;20406;-36
2024/03/23 02:06:07;;;;;;;3.13;2.28;;;6.50;99.90;;;;;;5024614;28;20487;-39
2024/03/23 02:08:33;;;;;;;3.08;2.75;;;6.50;99.90;;;;;;5026545;28;20112;-39
2024/03/23 02:10:58;;;;;;;2.83;2.42;;;6.50;99.90;;;;;;5025212;28;20112;-35
2024/03/23 02:13:24;;;;;;;2.25;2.10;;;6.50;99.90;;;;;;5025797;28;20067;-33
2024/03/23 02:15:50;;;;;;;2.80;2.20;;;6.60;99.90;;;;;;5026561;28;20044;-36
2024/03/23 02:18:15;;;;;;;4.50;2.30;;;6.50;99.90;;;;;;5010457;28;20072;-39
2024/03/23 02:20:41;;;;;;;2.33;2.03;;;6.30;99.90;;;;;;5002764;28;20395;-37
2024/03/23 02:23:17;;;;;;;2.88;2.42;;;6.10;99.90;;;;;;5004945;28;20034;-33
2024/03/23 02:25:43;;;;;;;2.53;2.33;;;6.00;99.90;;;;;;5002640;28;20026;-38
2024/03/23 02:28:09;;;;;;;2.70;2.22;;;5.80;99.90;;;;;;5008453;28;20080;-31
2024/03/23 02:30:34;;;;;;;3.05;2.67;;;5.80;99.90;;;;;;5000533;28;20109;-33
2024/03/23 02:33:00;;;;;;;3.38;1.90;;;5.60;99.90;;;;;;5008603;28;20759;-32
2024/03/23 02:35:26;;;;;;;2.78;2.38;;;5.40;99.90;;;;;;5000988;28;20034;-33
2024/03/23 02:37:52;;;;;;;3.60;2.53;;;5.30;99.90;;;;;;5005562;28;20029;-32
2024/03/23 02:40:19;;;;;;;5.50;2.13;;;5.30;99.90;;;;;;5004595;28;20500;-32
2024/03/23 02:42:45;;;;;;;3.45;2.58;;;5.20;99.90;;;;;;5009176;28;20567;-31
2024/03/23 02:45:10;;;;;;;4.25;2.80;;;5.10;99.90;;;;;;5002884;28;20042;-32
2024/03/23 02:47:36;;;;;;;2.75;2.40;;;5.10;99.90;;;;;;5004822;28;20546;-32
2024/03/23 02:50:02;;;;;;;2.80;2.53;;;5.00;99.90;;;;;;5004823;28;20065;-36
2024/03/23 02:52:27;;;;;;;2.97;2.58;;;4.90;99.90;;;;;;5001213;28;20031;-34
2024/03/23 02:54:53;;;;;;;2.33;2.13;;;5.00;99.90;;;;;;5005148;28;20076;-31
2024/03/23 02:57:18;;;;;;;3.30;2.38;;;5.00;99.90;;;;;;5008322;28;20084;-32
2024/03/23 02:59:44;;;;;;;2.60;2.30;;;5.00;99.90;;;;;;5004775;28;20780;-32
2024/03/23 03:02:11;;;;;;;6.50;3.35;;;5.10;99.90;;;;;;5004391;28;20038;-32
2024/03/23 03:04:36;;;;;;;42.42;17.38;;;5.30;99.90;;;;;;5005927;28;20084;-34
2024/03/23 03:07:02;;;;;;;71.63;26.98;;;5.60;99.90;;;;;;5006087;28;20033;-32
2024/03/23 03:09:27;;;;;;;22.73;11.07;;;5.80;99.90;;;;;;5007044;28;20033;-33
2024/03/23 03:11:53;;;;;;;13.65;6.60;;;5.90;99.90;;;;;;5005177;28;20466;-34
2024/03/23 03:14:19;;;;;;;13.27;7.28;;;5.80;99.90;;;;;;5008100;28;20061;-31
2024/03/23 03:16:45;;;;;;;8.27;3.90;;;5.80;99.90;;;;;;5006714;28;20050;-34
2024/03/23 03:19:11;;;;;;;8.77;4.38;;;5.80;99.90;;;;;;5023794;28;20087;-31
2024/03/23 03:21:37;;;;;;;42.17;19.80;;;5.80;99.90;;;;;;5024280;28;20013;-38
2024/03/23 03:24:03;;;;;;;16.10;8.32;;;5.90;99.90;;;;;;5026231;28;20033;-33
2024/03/23 03:26:28;;;;;;;9.85;6.13;;;5.90;99.90;;;;;;5021012;28;20030;-35
2024/03/23 03:28:54;;;;;;;11.07;6.15;;;6.00;99.90;;;;;;5024823;28;20030;-31
2024/03/23 03:31:20;;;;;;;14.63;7.63;;;6.10;99.90;;;;;;5020785;28;20033;-32
2024/03/23 03:33:46;;;;;;;39.55;17.30;;;6.10;99.90;;;;;;5024319;28;20038;-32
2024/03/23 03:36:12;;;;;;;52.95;24.42;;;6.30;99.90;;;;;;5021980;28;20060;-32
2024/03/23 03:38:38;;;;;;;51.20;25.58;;;6.50;99.90;;;;;;5023516;28;20076;-36
2024/03/23 03:41:04;;;;;;;11.98;7.00;;;6.70;99.90;;;;;;5022149;28;20152;-36
2024/03/23 03:43:29;;;;;;;7.63;4.32;;;6.80;99.90;;;;;;4999723;28;20669;-38
2024/03/23 03:45:57;;;;;;;6.18;3.92;;;6.90;99.90;;;;;;5023250;28;20037;-34
2024/03/23 03:48:23;;;;;;;4.95;3.40;;;7.10;99.90;;;;;;5019970;28;20026;-38
2024/03/23 03:50:48;;;;;;;15.20;7.50;;;7.20;99.90;;;;;;5022028;28;20030;-39
2024/03/23 03:53:14;;;;;;;8.52;4.75;;;7.30;99.90;;;;;;5024066;28;20095;-37
2024/03/23 03:55:40;;;;;;;19.55;10.30;;;7.60;99.90;;;;;;5025673;28;20564;-39
2024/03/23 03:58:05;;;;;;;39.58;20.25;;;7.70;99.90;;;;;;5019988;28;20143;-36
2024/03/23 04:00:31;;;;;;;20.20;14.50;;;7.80;99.90;;;;;;5021326;28;20461;-37
2024/03/23 04:02:57;;;;;;;6.80;6.10;;;8.00;99.90;;;;;;5020966;28;20029;-37
2024/03/23 04:05:23;;;;;;;9.23;8.32;;;8.10;99.90;;;;;;5021125;28;20022;-39
2024/03/23 04:07:49;;;;;;;3.80;2.90;;;8.20;99.90;;;;;;5023948;28;20025;-38
2024/03/23 04:10:15;;;;;;;7.68;4.60;;;8.30;99.90;;;;;;5023138;28;20100;-35
2024/03/23 04:12:41;;;;;;;5.03;2.90;;;8.30;99.90;;;;;;5023034;28;20029;-38
2024/03/23 04:15:07;;;;;;;2.53;2.33;;;8.30;99.90;;;;;;5022127;28;20025;-37
2024/03/23 04:17:34;;;;;;;2.88;2.33;;;8.40;99.90;;;;;;5021164;28;20079;-38
2024/03/23 04:20:00;;;;;;;4.88;2.30;;;8.50;99.90;;;;;;5023184;28;20463;-39
2024/03/23 04:22:27;;;;;;;2.22;2.03;;;8.60;99.90;;;;;;5023869;28;20069;-35
2024/03/23 04:24:56;;;;;;;2.00;1.90;;;8.70;99.90;;;;;;5019109;28;20747;-37
2024/03/23 04:27:25;;;;;;;2.30;2.10;;;8.80;99.90;;;;;;5023509;28;20471;-38
2024/03/23 04:29:52;;;;;;;2.45;2.25;;;8.80;99.90;;;;;;5023569;28;20049;-39
2024/03/23 04:32:18;;;;;;;4.88;2.17;;;8.90;99.90;;;;;;5023032;28;20045;-38
2024/03/23 04:34:45;;;;;;;4.68;2.78;;;9.00;99.90;;;;;;5024204;28;20037;-37
2024/03/23 04:37:11;;;;;;;3.13;2.60;;;9.10;99.90;;;;;;5024219;28;20542;-36
2024/03/23 04:39:37;;;;;;;3.30;2.20;;;9.10;99.90;;;;;;5023708;28;20037;-37
2024/03/23 04:42:03;;;;;;;3.10;2.10;;;9.00;99.90;;;;;;5023592;28;20057;-38
2024/03/23 04:44:29;;;;;;;2.92;2.28;;;9.00;99.90;;;;;;5023208;28;20065;-37
2024/03/23 04:46:55;;;;;;;2.85;2.08;;;9.10;99.90;;;;;;5022992;28;20064;-34
2024/03/23 04:49:20;;;;;;;2.55;1.90;;;9.00;99.90;;;;;;5022626;28;20025;-41
2024/03/23 04:51:46;;;;;;;4.00;2.65;;;9.10;99.90;;;;;;5022841;28;20071;-40
2024/03/23 04:54:12;;;;;;;2.85;2.55;;;9.10;99.90;;;;;;5020393;28;20517;-40
2024/03/23 04:56:38;;;;;;;2.90;2.15;;;9.10;99.90;;;;;;5019107;28;20076;-41
2024/03/23 04:59:05;;;;;;;2.83;2.33;;;9.10;99.90;;;;;;5022881;28;20033;-39
2024/03/23 05:01:33;;;;;;;2.50;2.30;;;9.20;99.90;;;;;;5020443;28;20032;-39
2024/03/23 05:03:59;;;;;;;2.67;2.28;;;9.20;99.90;;;;;;5023780;28;20279;-37
2024/03/23 05:06:25;;;;;;;2.33;2.13;;;9.20;99.90;;;;;;5021406;28;20037;-36
2024/03/23 05:08:51;;;;;;;2.28;2.08;;;9.10;99.90;;;;;;5022701;28;20606;-39
2024/03/23 05:11:17;;;;;;;5.10;2.05;;;9.10;99.90;;;;;;5022601;28;20026;-40
2024/03/23 05:13:44;;;;;;;2.33;2.10;;;9.10;99.90;;;;;;5023231;28;20047;-39
2024/03/23 05:16:09;;;;;;;2.15;1.95;;;9.00;99.90;;;;;;5022085;28;20112;-40
2024/03/23 05:18:35;;;;;;;2.95;1.90;;;9.00;99.90;;;;;;5022392;28;20132;-39
2024/03/23 05:21:01;;;;;;;3.85;2.30;;;9.10;99.90;;;;;;5021127;28;20061;-39
2024/03/23 05:23:28;;;;;;;2.45;2.25;;;9.00;99.90;;;;;;5023548;28;20065;-37
2024/03/23 05:25:54;;;;;;;4.47;2.13;;;9.00;99.90;;;;;;5024272;28;20021;-40
2024/03/23 05:28:20;;;;;;;4.70;2.55;;;9.00;99.90;;;;;;5022747;28;20026;-38
2024/03/23 05:30:54;;;;;;;2.88;2.00;;;9.00;99.90;;;;;;5021751;28;21236;-40
2024/03/23 05:33:20;;;;;;;3.42;1.90;;;9.00;99.90;;;;;;5021953;28;20679;-38
2024/03/23 05:35:47;;;;;;;2.67;2.10;;;9.00;99.90;;;;;;5021824;28;20037;-40
2024/03/23 05:38:13;;;;;;;1.95;1.85;;;9.00;99.90;;;;;;5023230;28;20041;-40
2024/03/23 05:40:40;;;;;;;1.83;1.70;;;9.00;99.90;;;;;;5022091;28;20562;-38
2024/03/23 05:43:06;;;;;;;2.47;1.77;;;9.00;99.90;;;;;;5025167;28;20509;-39
2024/03/23 05:45:32;;;;;;;2.67;2.10;;;9.10;99.90;;;;;;5021816;28;20030;-38
2024/03/23 05:47:58;;;;;;;3.67;2.10;;;9.10;99.90;;;;;;5024246;28;20059;-36
2024/03/23 05:50:24;;;;;;;2.45;2.25;;;9.10;99.90;;;;;;5023121;28;20032;-37
2024/03/23 05:52:50;;;;;;;2.13;1.70;;;9.10;99.90;;;;;;5022598;28;20029;-37
2024/03/23 05:55:15;;;;;;;2.00;1.90;;;9.10;99.90;;;;;;5018159;28;20319;-39
2024/03/23 05:57:41;;;;;;;2.78;1.65;;;9.10;99.90;;;;;;5004219;28;20030;-38
2024/03/23 06:00:15;;;;;;;2.47;2.20;;;9.20;99.90;;;;;;5022468;28;20041;-38
2024/03/23 06:02:45;;;;;;;2.85;2.15;;;9.30;99.90;;;;;;5023253;28;20034;-39
2024/03/23 06:05:12;;;;;;;4.30;2.05;;;9.30;99.90;;;;;;5022815;28;20517;-36
2024/03/23 06:07:37;;;;;;;3.58;1.83;;;9.40;99.90;;;;;;5022575;28;20467;-40
2024/03/23 06:10:04;;;;;;;2.58;1.90;;;9.50;99.90;;;;;;5022756;28;20033;-38
2024/03/23 06:12:30;;;;;;;1.85;1.75;;;9.50;99.90;;;;;;5021293;28;20382;-37
2024/03/23 06:14:56;;;;;;;2.58;2.10;;;9.60;99.90;;;;;;5020287;28;20030;-35
2024/03/23 06:17:21;;;;;;;3.38;2.03;;;9.80;99.90;;;;;;5021399;28;21404;-38
2024/03/23 06:19:47;;;;;;;2.22;1.73;;;9.90;99.90;;;;;;5019409;28;20550;-37
2024/03/23 06:22:13;;;;;;;2.40;2.20;;;10.10;99.90;;;;;;5018611;28;20046;-39
2024/03/23 06:24:38;;;;;;;2.97;2.10;;;10.20;99.90;;;;;;5018078;28;20029;-39
2024/03/23 06:27:04;;;;;;;2.40;2.20;;;10.30;99.90;;;;;;5022192;28;20034;-36
2024/03/23 06:29:30;;;;;;;2.60;1.70;;;10.40;99.90;;;;;;5018467;28;20510;-39
2024/03/23 06:31:55;;;;;;;2.90;2.08;;;10.40;99.90;;;;;;5021137;28;20030;-37
2024/03/23 06:34:22;;;;;;;2.38;1.92;;;10.50;99.90;;;;;;5020731;28;20052;-40
2024/03/23 06:36:49;;;;;;;1.80;1.70;;;10.50;99.90;;;;;;5019953;28;20038;-40
2024/03/23 06:39:15;;;;;;;2.47;1.67;;;10.50;99.90;;;;;;5016134;28;20403;-39
2024/03/23 06:41:52;;;;;;;2.25;1.70;;;10.50;99.90;;;;;;5004329;28;20032;-35
2024/03/23 06:44:19;;;;;;;2.00;1.80;;;10.50;99.90;;;;;;5023089;28;20037;-39
2024/03/23 06:46:45;;;;;;;2.20;1.83;;;10.60;99.90;;;;;;5024510;28;20040;-38
2024/03/23 06:49:11;;;;;;;3.13;1.85;;;10.60;99.90;;;;;;5026464;28;20029;-40
2024/03/23 06:51:37;;;;;;;7.38;2.42;;;10.60;99.90;;;;;;5019587;28;20496;-39
2024/03/23 06:54:03;;;;;;;2.50;1.88;;;10.70;99.90;;;;;;5022078;28;20033;-37
2024/03/23 06:56:29;;;;;;;1.17;0.75;;;10.70;99.90;;;;;;5020649;28;20681;-38
2024/03/23 06:58:56;;;;;;;2.72;1.85;;;10.90;99.90;;;;;;5020403;28;20037;-39
2024/03/23 07:01:21;;;;;;;2.55;1.88;;;10.90;99.90;;;;;;5024654;28;20041;-37
2024/03/23 07:03:47;;;;;;;1.83;1.73;;;10.90;99.90;;;;;;5022058;28;20021;-39
2024/03/23 07:06:12;;;;;;;3.17;1.98;;;11.00;99.90;;;;;;5022009;28;20036;-36
2024/03/23 07:08:38;;;;;;;1.55;1.45;;;11.10;99.90;;;;;;5022176;28;20026;-40
2024/03/23 07:11:04;;;;;;;4.22;2.22;;;11.20;99.90;;;;;;5024365;28;20566;-37
2024/03/23 07:13:30;;;;;;;2.97;2.03;;;11.20;99.90;;;;;;5022073;28;20659;-38
2024/03/23 07:15:57;;;;;;;1.55;1.45;;;11.30;99.90;;;;;;5019377;28;20038;-40
2024/03/23 07:18:22;;;;;;;2.40;2.20;;;11.20;99.90;;;;;;5010043;28;20046;-31
2024/03/23 07:20:57;;;;;;;3.05;2.05;;;11.20;99.90;;;;;;5004743;28;20034;-32
2024/03/23 07:23:24;;;;;;;4.68;1.85;;;10.90;99.90;;;;;;5006524;28;20411;-31
2024/03/23 07:26:07;;;;;;;2.00;1.80;;;10.50;99.90;;;;;;5004762;28;20019;-32
2024/03/23 07:28:34;;;;;;;1.63;1.52;;;10.10;99.90;;;;;;5014301;28;20479;-32
2024/03/23 07:31:09;;;;;;;2.80;1.73;;;9.80;99.90;;;;;;5003717;28;20053;-31
2024/03/23 07:33:38;;;;;;;1.98;1.48;;;9.60;99.90;;;;;;4999004;28;20037;-31
2024/03/23 07:36:04;;;;;;;1.90;1.65;;;9.50;99.90;;;;;;5007721;28;20030;-34
2024/03/23 07:38:30;;;;;;;2.15;1.90;;;9.50;99.90;;;;;;5010477;28;20797;-32
2024/03/23 07:41:09;;;;;;;1.40;1.30;;;9.40;99.90;;;;;;5005576;28;20029;-35
2024/03/23 07:43:38;;;;;;;3.80;1.60;;;9.30;99.90;;;;;;5001682;28;20072;-31
2024/03/23 07:46:04;;;;;;;2.17;1.77;;;9.20;99.90;;;;;;5005786;28;20105;-32
2024/03/23 07:48:30;;;;;;;1.20;1.10;;;9.20;99.90;;;;;;4987598;28;20665;-34
2024/03/23 07:51:10;;;;;;;1.55;1.45;;;9.20;99.90;;;;;;5004330;28;20506;-34
2024/03/23 07:53:37;;;;;;;4.97;3.10;;;9.20;99.90;;;;;;5000275;28;20081;-31
2024/03/23 07:56:12;;;;;;;2.40;1.65;;;9.20;99.90;;;;;;5003887;28;20030;-31
2024/03/23 07:58:39;;;;;;;3.03;1.60;;;9.10;99.90;;;;;;5004481;28;20421;-34
2024/03/23 08:01:09;;;;;;;2.10;1.88;;;9.10;99.90;;;;;;5005669;28;20085;-32
2024/03/23 08:03:35;;;;;;;3.38;2.10;;;9.00;99.90;;;;;;5003724;28;20096;-34
2024/03/23 08:06:14;;;;;;;2.00;1.35;;;8.90;99.90;;;;;;5003430;28;20498;-33
2024/03/23 08:08:42;;;;;;;1.70;1.60;;;8.90;99.90;;;;;;4984499;28;20117;-31
2024/03/23 08:11:08;;;;;;;4.07;2.40;;;8.90;99.90;;;;;;5003808;28;20026;-35
2024/03/23 08:13:34;;;;;;;0.82;0.82;;;9.00;99.90;;;;;;5004229;28;20819;-31
2024/03/23 08:16:02;;;;;;;1.92;1.80;;;9.00;99.90;;;;;;4997456;28;20038;-33
2024/03/23 08:18:28;;;;;;;3.65;1.63;;;9.00;99.90;;;;;;5022278;28;20037;-39
2024/03/23 08:21:00;;;;;;;1.38;1.25;;;9.00;99.90;;;;;;5023814;28;20030;-36
2024/03/23 08:23:26;;;;;;;2.55;2.35;;;9.00;99.90;;;;;;5020336;28;20146;-36
2024/03/23 08:25:57;;;;;;;2.45;1.88;;;9.00;99.90;;;;;;5019976;28;20022;-37
2024/03/23 08:28:22;;;;;;;2.58;1.92;;;9.10;99.90;;;;;;5022826;28;20124;-31
2024/03/23 08:30:49;;;;;;;2.92;2.08;;;9.10;99.90;;;;;;5023931;28;20125;-32
2024/03/23 08:33:15;;;;;;;2.05;1.95;;;9.10;99.90;;;;;;5021722;28;20036;-31
2024/03/23 08:35:41;;;;;;;2.25;1.80;;;9.10;99.90;;;;;;5024078;28;20490;-31
2024/03/23 08:38:07;;;;;;;2.80;2.33;;;9.00;99.90;;;;;;5022503;28;20037;-31
2024/03/23 08:40:32;;;;;;;2.10;1.88;;;9.00;99.90;;;;;;5021466;28;20033;-32
2024/03/23 08:42:58;;;;;;;1.50;1.40;;;9.00;99.90;;;;;;5025020;28;20087;-36
2024/03/23 08:45:25;;;;;;;1.60;1.50;;;9.00;99.90;;;;;;5006175;28;20048;-31
2024/03/23 08:47:51;;;;;;;2.38;1.42;;;9.10;99.90;;;;;;5021994;28;20026;-33
2024/03/23 08:50:16;;;;;;;2.45;2.00;;;9.00;99.90;;;;;;5023848;28;20168;-31
2024/03/23 08:52:42;;;;;;;1.10;1.10;;;9.00;99.90;;;;;;5021151;28;20116;-33
2024/03/23 08:55:09;;;;;;;2.45;2.25;;;9.00;99.90;;;;;;5022568;28;20057;-31
2024/03/23 08:57:35;;;;;;;2.47;2.28;;;9.00;99.90;;;;;;5024559;28;20084;-31
2024/03/23 09:00:01;;;;;;;1.75;1.65;;;9.00;99.90;;;;;;5018860;28;20038;-31
2024/03/23 09:02:26;;;;;;;1.08;1.00;;;9.00;99.90;;;;;;5020378;28;20041;-33
2024/03/23 09:04:52;;;;;;;1.70;1.60;;;9.10;99.90;;;;;;5022822;28;20025;-31
2024/03/23 09:07:18;;;;;;;1.25;1.10;;;9.10;99.90;;;;;;5022696;28;20033;-31
2024/03/23 09:09:43;;;;;;;1.33;1.10;;;9.10;99.90;;;;;;5023847;28;20731;-31
2024/03/23 09:12:09;;;;;;;1.38;1.27;;;9.10;99.90;;;;;;5019730;28;20069;-31
2024/03/23 09:14:34;;;;;;;3.17;1.58;;;9.10;99.90;;;;;;5023134;28;20034;-32
2024/03/23 09:17:00;;;;;;;2.15;1.70;;;9.20;99.90;;;;;;5021943;28;20037;-34
2024/03/23 09:19:29;;;;;;;1.52;1.42;;;9.20;99.90;;;;;;5023089;28;20112;-34
2024/03/23 09:21:55;;;;;;;1.77;1.42;;;9.10;99.90;;;;;;5021431;28;20034;-32
2024/03/23 09:24:21;;;;;;;1.85;1.65;;;9.10;99.90;;;;;;5025566;28;20098;-31
2024/03/23 09:26:46;;;;;;;1.63;1.50;;;9.20;99.90;;;;;;5004595;28;20032;-32
2024/03/23 09:29:12;;;;;;;1.83;1.10;;;9.10;99.90;;;;;;5024795;28;20495;-31
2024/03/23 09:31:38;;;;;;;0.80;0.80;;;9.10;99.90;;;;;;5021523;28;20033;-31
2024/03/23 09:34:04;;;;;;;1.13;1.00;;;9.10;99.90;;;;;;5024553;28;20101;-32
2024/03/23 09:36:29;;;;;;;0.68;0.68;;;9.10;99.90;;;;;;5023725;28;20033;-34
2024/03/23 09:38:55;;;;;;;0.52;0.52;;;9.10;99.90;;;;;;5025300;28;20545;-38
2024/03/23 09:41:21;;;;;;;0.52;0.52;;;9.10;99.90;;;;;;5021912;28;20048;-40
2024/03/23 09:43:48;;;;;;;0.50;0.50;;;9.10;99.90;;;;;;5022022;28;20053;-37
2024/03/23 09:46:14;;;;;;;0.70;0.70;;;9.10;99.90;;;;;;5024821;28;20025;-39
2024/03/23 09:48:40;;;;;;;0.40;0.40;;;9.10;99.90;;;;;;5024266;28;20049;-39
2024/03/23 09:51:08;;;;;;;1.55;0.57;;;9.10;99.90;;;;;;5022202;28;20068;-37
2024/03/23 09:53:34;;;;;;;0.60;0.60;;;9.10;99.90;;;;;;5020639;28;20121;-37
2024/03/23 09:56:00;;;;;;;0.60;0.60;;;9.20;99.90;;;;;;5024800;28;20649;-39
2024/03/23 09:58:26;;;;;;;0.40;0.40;;;9.20;99.90;;;;;;5019916;28;20038;-39
2024/03/23 10:00:51;;;;;;;0.93;0.93;;;9.20;99.90;;;;;;5021593;28;20133;-39
2024/03/23 10:03:17;;;;;;;0.73;0.52;;;9.10;99.90;;;;;;5021161;28;20025;-40
2024/03/23 10:05:43;;;;;;;0.40;0.40;;;9.00;99.90;;;;;;5024238;28;20029;-37
2024/03/23 10:08:15;;;;;;;0.57;0.57;;;8.90;99.90;;;;;;5023306;28;20025;-39
2024/03/23 10:10:41;;;;;;;0.60;0.60;;;8.70;99.90;;;;;;5024234;28;20025;-38
2024/03/23 10:13:07;;;;;;;1.08;0.68;;;8.80;99.90;;;;;;5021212;28;20037;-38
2024/03/23 10:15:36;;;;;;;0.65;0.60;;;8.70;99.90;;;;;;5023272;28;20029;-38
2024/03/23 10:18:18;;;;;;;0.88;0.70;;;8.70;99.90;;;;;;5021856;28;20072;-38
2024/03/23 10:20:47;;;;;;;3.22;2.13;;;8.70;99.90;;;;;;5024269;28;20037;-37
2024/03/23 10:23:17;;;;;;;0.80;0.80;;;8.60;99.90;;;;;;5023653;28;20132;-39
2024/03/23 10:25:42;;;;;;;1.13;1.00;;;8.60;99.90;;;;;;5025531;28;20022;-38
2024/03/23 10:28:09;;;;;;;0.73;0.73;;;8.60;99.90;;;;;;5027774;28;20075;-39
2024/03/23 10:30:35;;;;;;;0.95;0.95;;;8.60;99.90;;;;;;5025406;28;20379;-37
2024/03/23 10:33:27;;;;;;;1.08;0.98;;;8.50;99.90;;;;;;5027567;28;20029;-38
2024/03/23 10:35:53;;;;;;;0.90;0.90;;;8.70;99.90;;;;;;5020711;28;20649;-37
2024/03/23 10:38:19;;;;;;;0.40;0.40;;;8.90;99.90;;;;;;5027589;28;20040;-33
2024/03/23 10:40:45;;;;;;;0.70;0.70;;;9.00;99.90;;;;;;5024596;28;20033;-33
2024/03/23 10:43:11;;;;;;;0.70;0.70;;;8.90;99.90;;;;;;5020468;28;20026;-31
2024/03/23 10:45:37;;;;;;;0.90;0.90;;;9.10;99.90;;;;;;5028407;28;20801;-32
2024/03/23 10:48:04;;;;;;;0.73;0.73;;;9.00;99.90;;;;;;5024436;28;20476;-33
2024/03/23 10:50:29;;;;;;;0.90;0.85;;;9.00;99.90;;;;;;5028215;28;20061;-33
2024/03/23 10:52:59;;;;;;;1.38;0.90;;;9.10;99.90;;;;;;5024086;28;20067;-33
2024/03/23 10:55:25;;;;;;;2.25;1.00;;;9.20;99.90;;;;;;5023470;28;20438;-34
2024/03/23 10:57:55;;;;;;;1.38;1.33;;;9.10;99.90;;;;;;5025143;28;20021;-32
2024/03/23 11:00:21;;;;;;;1.52;1.15;;;9.00;99.90;;;;;;5024976;28;20029;-34
2024/03/23 11:02:48;;;;;;;2.00;1.38;;;9.10;99.90;;;;;;5021649;28;20025;-32
2024/03/23 11:05:29;;;;;;;3.40;1.27;;;9.10;99.90;;;;;;5024395;28;20053;-35
2024/03/23 11:07:55;;;;;;;1.02;1.02;;;9.10;99.90;;;;;;5025972;28;20025;-33
2024/03/23 11:10:29;;;;;;;2.03;1.70;;;9.20;99.90;;;;;;5025443;28;20055;-34
2024/03/23 11:13:19;;;;;;;2.65;1.10;;;9.10;99.90;;;;;;5021639;28;20236;-36
2024/03/23 11:15:44;;;;;;;1.88;1.40;;;9.10;99.90;;;;;;5014914;28;20089;-33
2024/03/23 11:18:11;;;;;;;1.83;1.52;;;9.10;99.90;;;;;;5023102;28;20073;-31
2024/03/23 11:20:37;;;;;;;2.88;1.80;;;9.00;98.80;;;;;;5025586;28;20037;-34
2024/03/23 11:23:05;;;;;;;4.97;1.75;;;8.80;92.70;;;;;;5025924;28;20117;-34
2024/03/23 11:25:30;;;;;;;2.00;1.88;;;8.60;91.70;;;;;;5022047;28;20029;-32
2024/03/23 11:28:08;;;;;;;1.40;1.30;;;8.60;97.80;;;;;;5025754;28;20564;-33
2024/03/23 11:30:34;;;;;;;3.13;2.28;;;8.60;95.90;;;;;;5026468;28;20040;-33
2024/03/23 11:33:02;;;;;;;1.23;1.00;;;8.40;93.00;;;;;;5022760;28;20375;-33
2024/03/23 11:35:39;;;;;;;2.13;1.77;;;8.50;97.00;;;;;;5027105;28;20032;-33
2024/03/23 11:38:17;;;;;;;2.08;1.75;;;8.50;94.10;;;;;;5023665;28;20040;-34
2024/03/23 11:40:45;;;;;;;3.00;1.60;;;8.60;96.90;;;;;;5024790;28;20032;-32
2024/03/23 11:43:14;;;;;;;2.47;1.90;;;8.60;96.80;;;;;;5024376;28;20045;-34
2024/03/23 11:45:43;;;;;;;6.85;1.95;;;8.80;98.60;;;;;;5026286;28;20479;-33
2024/03/23 11:48:14;;;;;;;1.73;1.60;;;9.00;97.50;;;;;;5023790;28;20033;-32
2024/03/23 11:50:42;;;;;;;3.90;1.60;;;9.00;97.60;;;;;;5026396;28;20490;-34
2024/03/23 11:53:17;;;;;;;2.13;1.60;;;8.90;95.00;;;;;;5024836;28;20103;-32
2024/03/23 11:55:46;;;;;;;2.40;2.00;;;9.10;99.00;;;;;;5025675;28;20033;-31
2024/03/23 11:58:12;;;;;;;1.48;1.38;;;9.30;99.90;;;;;;5022118;28;20029;-32
2024/03/23 12:00:38;;;;;;;5.00;2.15;;;9.40;98.20;;;;;;5026033;28;20037;-34
2024/03/23 12:03:04;;;;;;;3.90;1.88;;;9.30;96.90;;;;;;5024251;28;20029;-32
2024/03/23 12:05:31;;;;;;;3.00;1.95;;;9.20;96.70;;;;;;5020972;28;20026;-35
2024/03/23 12:08:45;;;;;;;3.60;2.05;;;8.90;94.30;;;;;;5025631;28;20045;-32
2024/03/23 12:11:14;;;;;;;2.80;1.95;;;8.70;95.80;;;;;;5010374;28;20068;-32
2024/03/23 12:13:43;;;;;;;2.47;1.70;;;9.00;98.50;;;;;;5020602;28;20034;-31
2024/03/23 12:16:10;;;;;;;2.60;2.35;;;9.20;99.90;;;;;;5021906;28;20479;-34
2024/03/23 12:18:36;;;;;;;4.38;2.20;;;9.30;96.60;;;;;;5025109;28;20095;-34
2024/03/23 12:21:01;;;;;;;1.92;1.35;;;9.10;93.20;;;;;;5025470;28;20029;-32
2024/03/23 12:23:27;;;;;;;3.35;2.22;;;9.00;92.60;;;;;;5024035;28;20033;-32
2024/03/23 12:25:52;;;;;;;1.38;1.27;;;9.10;96.40;;;;;;5026200;28;20025;-32
2024/03/23 12:28:18;;;;;;;3.42;2.10;;;9.20;92.00;;;;;;5025690;28;20036;-32
2024/03/23 12:30:43;;;;;;;4.38;1.52;;;9.20;90.50;;;;;;5023797;28;20029;-33
2024/03/23 12:33:09;;;;;;;3.05;1.85;;;9.30;91.00;;;;;;5025118;28;20419;-32
2024/03/23 12:35:35;;;;;;;3.30;2.33;;;9.50;90.50;;;;;;5022128;28;20033;-33
2024/03/23 12:38:00;;;;;;;4.70;2.03;;;9.30;83.10;;;;;;5025146;28;20030;-32
2024/03/23 12:40:27;;;;;;;5.38;2.20;;;9.10;81.20;;;;;;5023035;28;20812;-33
2024/03/23 12:42:53;;;;;;;3.60;1.98;;;9.10;76.80;;;;;;5023597;28;20765;-33
2024/03/23 12:45:19;;;;;;;4.05;2.28;;;9.10;77.80;;;;;;5019297;28;20017;-34
2024/03/23 12:47:45;;;;;;;2.25;1.50;;;9.00;82.20;;;;;;5024612;28;20029;-34
2024/03/23 12:50:11;;;;;;;1.98;1.48;;;9.00;83.70;;;;;;5024844;28;20018;-31
2024/03/23 12:52:37;;;;;;;2.72;1.80;;;8.80;90.50;;;;;;5025920;28;20108;-33
2024/03/23 12:55:05;;;;;;;3.75;1.65;;;8.60;86.40;;;;;;5018107;28;20518;-36